createdAt,value
2019-02-22T00:00:29.698Z,0
2019-02-22T00:01:10.294Z,0
2019-02-22T00:01:51.011Z,0
2019-02-22T00:02:31.500Z,0
2019-02-22T00:03:12.112Z,0
2019-02-22T00:03:52.765Z,0
2019-02-22T00:04:33.430Z,0
2019-02-22T00:05:14.258Z,0
2019-02-22T00:05:54.883Z,0
2019-02-22T00:06:35.518Z,0
2019-02-22T00:07:16.120Z,0
2019-02-22T00:07:56.764Z,0
2019-02-22T00:08:37.376Z,0
2019-02-22T00:09:17.966Z,0
2019-02-22T00:09:58.600Z,0
2019-02-22T00:10:39.255Z,0
2019-02-22T00:11:19.904Z,0
2019-02-22T00:12:00.550Z,0
2019-02-22T00:12:41.157Z,0
2019-02-22T00:13:21.768Z,0
2019-02-22T00:14:02.380Z,0
2019-02-22T00:14:43.078Z,0
2019-02-22T00:15:23.742Z,0
2019-02-22T00:16:04.354Z,0
2019-02-22T00:16:44.976Z,0
2019-02-22T00:17:25.571Z,0
2019-02-22T00:18:06.184Z,0
2019-02-22T00:18:46.825Z,0
2019-02-22T00:19:27.416Z,0
2019-02-22T00:20:08.052Z,0
2019-02-22T00:20:48.696Z,0
2019-02-22T00:21:29.302Z,0
2019-02-22T00:22:09.934Z,0
2019-02-22T00:22:50.530Z,0
2019-02-22T00:23:31.127Z,0
2019-02-22T00:24:11.741Z,0
2019-02-22T00:24:52.363Z,0
2019-02-22T00:25:32.976Z,0
2019-02-22T00:26:13.585Z,0
2019-02-22T00:26:54.179Z,0
2019-02-22T00:27:34.778Z,0
2019-02-22T00:28:15.394Z,0
2019-02-22T00:28:55.990Z,0
2019-02-22T00:29:36.596Z,0
2019-02-22T00:30:17.218Z,0
2019-02-22T00:30:57.852Z,0
2019-02-22T00:31:38.448Z,0
2019-02-22T00:32:19.050Z,0
2019-02-22T00:32:59.640Z,0
2019-02-22T00:33:40.242Z,0
2019-02-22T00:34:20.829Z,0
2019-02-22T00:35:01.439Z,0
2019-02-22T00:35:42.070Z,0
2019-02-22T00:36:22.648Z,0
2019-02-22T00:37:03.247Z,0
2019-02-22T00:37:43.849Z,0
2019-02-22T00:38:26.892Z,0
2019-02-22T00:39:05.081Z,0
2019-02-22T00:39:45.696Z,0
2019-02-22T00:40:26.299Z,0
2019-02-22T00:41:06.923Z,0
2019-02-22T00:41:47.541Z,0
2019-02-22T00:42:28.138Z,0
2019-02-22T00:43:08.774Z,0
2019-02-22T00:43:49.364Z,0
2019-02-22T00:44:29.964Z,0
2019-02-22T00:45:10.566Z,0
2019-02-22T00:45:51.171Z,0
2019-02-22T00:46:31.774Z,0
2019-02-22T00:47:12.389Z,0
2019-02-22T00:47:52.986Z,0
2019-02-22T00:48:33.578Z,0
2019-02-22T00:49:14.176Z,0
2019-02-22T00:49:54.766Z,0
2019-02-22T00:50:35.380Z,0
2019-02-22T00:51:15.972Z,0
2019-02-22T00:51:56.572Z,0
2019-02-22T00:52:37.162Z,0
2019-02-22T00:53:17.770Z,0
2019-02-22T00:53:58.376Z,0
2019-02-22T00:54:38.976Z,0
2019-02-22T00:55:19.577Z,0
2019-02-22T00:56:00.287Z,0
2019-02-22T00:56:40.901Z,0
2019-02-22T00:57:21.508Z,0
2019-02-22T00:58:02.090Z,0
2019-02-22T00:58:42.802Z,0
2019-02-22T00:59:23.292Z,0
2019-02-22T01:00:03.890Z,0
2019-02-22T01:00:45.520Z,0
2019-02-22T01:01:26.192Z,0
2019-02-22T01:02:06.790Z,0
2019-02-22T01:02:51.118Z,0
2019-02-22T01:03:31.736Z,0
2019-02-22T01:04:12.366Z,0
2019-02-22T01:04:53.002Z,0
2019-02-22T01:05:33.618Z,0
2019-02-22T01:06:14.230Z,0
2019-02-22T01:06:54.908Z,0
2019-02-22T01:07:35.672Z,0
2019-02-22T01:08:16.697Z,0
2019-02-22T01:08:57.300Z,0
2019-02-22T01:09:37.996Z,0
2019-02-22T01:10:18.608Z,0
2019-02-22T01:10:59.206Z,0
2019-02-22T01:11:39.800Z,0
2019-02-22T01:12:20.402Z,0
2019-02-22T01:13:01.056Z,0
2019-02-22T01:13:41.663Z,0
2019-02-22T01:14:22.274Z,0
2019-02-22T01:15:02.901Z,0
2019-02-22T01:15:43.506Z,0
2019-02-22T01:16:24.098Z,0
2019-02-22T01:17:04.728Z,0
2019-02-22T01:17:45.337Z,0
2019-02-22T01:18:25.937Z,0
2019-02-22T01:19:06.550Z,0
2019-02-22T01:19:47.146Z,0
2019-02-22T01:20:29.368Z,0
2019-02-22T01:21:09.993Z,0
2019-02-22T01:21:50.603Z,0
2019-02-22T01:22:31.196Z,0
2019-02-22T01:23:11.788Z,0
2019-02-22T01:23:52.382Z,0
2019-02-22T01:24:32.982Z,0
2019-02-22T01:25:13.585Z,0
2019-02-22T01:25:54.198Z,0
2019-02-22T01:26:34.816Z,0
2019-02-22T01:27:15.435Z,0
2019-02-22T01:27:56.056Z,0
2019-02-22T01:28:36.672Z,0
2019-02-22T01:29:17.281Z,0
2019-02-22T01:29:57.894Z,0
2019-02-22T01:30:38.513Z,0
2019-02-22T01:31:19.116Z,0
2019-02-22T01:31:59.720Z,0
2019-02-22T01:32:40.322Z,0
2019-02-22T01:33:20.933Z,0
2019-02-22T01:34:01.526Z,0
2019-02-22T01:34:42.118Z,0
2019-02-22T01:35:22.716Z,0
2019-02-22T01:36:03.326Z,0
2019-02-22T01:36:43.962Z,0
2019-02-22T01:37:24.526Z,0
2019-02-22T01:38:05.140Z,0
2019-02-22T01:38:45.756Z,0
2019-02-22T01:39:26.392Z,0
2019-02-22T01:40:06.998Z,0
2019-02-22T01:40:47.590Z,0
2019-02-22T01:41:28.191Z,0
2019-02-22T01:42:08.854Z,0
2019-02-22T01:42:49.401Z,0
2019-02-22T01:43:30.009Z,0
2019-02-22T01:44:10.605Z,0
2019-02-22T01:44:51.206Z,0
2019-02-22T01:45:31.836Z,0
2019-02-22T01:46:12.442Z,0
2019-02-22T01:46:53.053Z,0
2019-02-22T01:47:33.662Z,0
2019-02-22T01:48:14.287Z,0
2019-02-22T01:48:54.889Z,0
2019-02-22T01:49:35.476Z,0
2019-02-22T01:50:16.082Z,0
2019-02-22T01:50:56.684Z,0
2019-02-22T01:51:37.292Z,0
2019-02-22T01:52:17.894Z,0
2019-02-22T01:52:58.546Z,0
2019-02-22T01:53:39.146Z,0
2019-02-22T01:54:19.746Z,0
2019-02-22T01:55:00.367Z,0
2019-02-22T01:55:40.936Z,0
2019-02-22T01:56:21.570Z,0
2019-02-22T01:57:02.174Z,0
2019-02-22T01:57:42.780Z,0
2019-02-22T01:58:23.430Z,0
2019-02-22T01:59:04.052Z,0
2019-02-22T01:59:44.652Z,0
2019-02-22T02:00:25.258Z,0
2019-02-22T02:01:05.861Z,0
2019-02-22T02:01:46.466Z,0
2019-02-22T02:02:27.088Z,0
2019-02-22T02:03:07.673Z,0
2019-02-22T02:03:48.268Z,0
2019-02-22T02:04:28.882Z,0
2019-02-22T02:05:09.470Z,0
2019-02-22T02:05:50.070Z,0
2019-02-22T02:06:30.666Z,0
2019-02-22T02:07:11.297Z,0
2019-02-22T02:07:51.896Z,0
2019-02-22T02:08:32.510Z,0
2019-02-22T02:09:13.114Z,0
2019-02-22T02:09:53.720Z,0
2019-02-22T02:10:34.338Z,0
2019-02-22T02:11:14.948Z,0
2019-02-22T02:11:55.538Z,0
2019-02-22T02:12:36.144Z,0
2019-02-22T02:13:16.730Z,0
2019-02-22T02:13:57.335Z,0
2019-02-22T02:14:37.934Z,0
2019-02-22T02:15:18.546Z,0
2019-02-22T02:15:59.150Z,0
2019-02-22T02:16:39.752Z,0
2019-02-22T02:17:20.347Z,0
2019-02-22T02:18:00.928Z,0
2019-02-22T02:18:41.528Z,0
2019-02-22T02:19:22.113Z,0
2019-02-22T02:20:02.741Z,0
2019-02-22T02:20:43.401Z,0
2019-02-22T02:21:24.040Z,0
2019-02-22T02:22:04.658Z,0
2019-02-22T02:22:45.274Z,0
2019-02-22T02:23:25.879Z,0
2019-02-22T02:24:06.474Z,0
2019-02-22T02:24:47.090Z,0
2019-02-22T02:25:27.702Z,0
2019-02-22T02:26:08.300Z,0
2019-02-22T02:26:48.877Z,0
2019-02-22T02:27:29.476Z,0
2019-02-22T02:28:10.072Z,0
2019-02-22T02:28:51.644Z,0
2019-02-22T02:29:31.266Z,0
2019-02-22T02:30:11.885Z,0
2019-02-22T02:30:52.485Z,0
2019-02-22T02:31:33.098Z,0
2019-02-22T02:32:13.690Z,0
2019-02-22T02:32:54.289Z,0
2019-02-22T02:33:34.884Z,0
2019-02-22T02:34:15.493Z,0
2019-02-22T02:34:56.096Z,0
2019-02-22T02:35:36.696Z,0
2019-02-22T02:36:17.304Z,0
2019-02-22T02:36:57.913Z,0
2019-02-22T02:37:38.510Z,0
2019-02-22T02:38:19.144Z,0
2019-02-22T02:38:59.748Z,0
2019-02-22T02:39:40.375Z,0
2019-02-22T02:40:20.965Z,0
2019-02-22T02:41:08.342Z,0
2019-02-22T02:41:42.207Z,0
2019-02-22T02:42:22.844Z,0
2019-02-22T02:43:03.491Z,0
2019-02-22T02:43:44.061Z,0
2019-02-22T02:44:24.755Z,0
2019-02-22T02:45:06.914Z,0
2019-02-22T02:45:47.517Z,0
2019-02-22T02:46:28.226Z,0
2019-02-22T02:47:08.909Z,0
2019-02-22T02:47:49.519Z,0
2019-02-22T02:48:30.198Z,0
2019-02-22T02:49:10.842Z,0
2019-02-22T02:49:51.436Z,0
2019-02-22T02:50:32.035Z,0
2019-02-22T02:51:12.662Z,0
2019-02-22T02:51:53.273Z,0
2019-02-22T02:52:33.888Z,0
2019-02-22T02:53:14.501Z,0
2019-02-22T02:53:55.106Z,0
2019-02-22T02:54:35.720Z,0
2019-02-22T02:55:16.376Z,0
2019-02-22T02:55:57.006Z,0
2019-02-22T02:56:37.682Z,0
2019-02-22T02:57:18.393Z,0
2019-02-22T02:57:58.998Z,0
2019-02-22T02:58:39.641Z,0
2019-02-22T02:59:20.882Z,0
2019-02-22T03:00:01.575Z,0
2019-02-22T03:00:42.168Z,0
2019-02-22T03:01:22.782Z,0
2019-02-22T03:02:03.607Z,0
2019-02-22T03:02:44.274Z,0
2019-02-22T03:03:24.883Z,0
2019-02-22T03:04:05.622Z,0
2019-02-22T03:04:46.266Z,0
2019-02-22T03:05:28.405Z,0
2019-02-22T03:06:09.014Z,0
2019-02-22T03:06:49.634Z,0
2019-02-22T03:07:30.246Z,0
2019-02-22T03:08:10.857Z,0
2019-02-22T03:08:51.462Z,0
2019-02-22T03:09:32.058Z,0
2019-02-22T03:10:12.694Z,0
2019-02-22T03:10:53.289Z,0
2019-02-22T03:11:33.896Z,0
2019-02-22T03:12:14.524Z,0
2019-02-22T03:12:55.118Z,0
2019-02-22T03:13:35.717Z,0
2019-02-22T03:14:16.319Z,0
2019-02-22T03:14:56.966Z,0
2019-02-22T03:15:37.573Z,0
2019-02-22T03:16:18.182Z,0
2019-02-22T03:16:58.778Z,0
2019-02-22T03:17:39.388Z,0
2019-02-22T03:18:19.983Z,0
2019-02-22T03:19:00.604Z,0
2019-02-22T03:19:41.197Z,0
2019-02-22T03:20:21.797Z,0
2019-02-22T03:21:02.403Z,0
2019-02-22T03:21:43.014Z,0
2019-02-22T03:22:23.602Z,0
2019-02-22T03:23:04.208Z,0
2019-02-22T03:23:44.824Z,0
2019-02-22T03:24:25.427Z,0
2019-02-22T03:25:06.029Z,0
2019-02-22T03:25:46.629Z,0
2019-02-22T03:26:27.254Z,0
2019-02-22T03:27:07.839Z,0
2019-02-22T03:27:48.446Z,0
2019-02-22T03:28:29.030Z,0
2019-02-22T03:29:09.621Z,0
2019-02-22T03:29:50.226Z,0
2019-02-22T03:30:30.817Z,0
2019-02-22T03:31:11.437Z,0
2019-02-22T03:31:52.073Z,0
2019-02-22T03:32:32.677Z,0
2019-02-22T03:33:13.335Z,0
2019-02-22T03:33:53.879Z,0
2019-02-22T03:34:34.475Z,0
2019-02-22T03:35:15.079Z,0
2019-02-22T03:35:55.674Z,0
2019-02-22T03:36:36.407Z,0
2019-02-22T03:37:16.903Z,0
2019-02-22T03:37:57.495Z,0
2019-02-22T03:38:38.139Z,0
2019-02-22T03:39:18.724Z,0
2019-02-22T03:39:59.374Z,0
2019-02-22T03:40:39.961Z,0
2019-02-22T03:41:31.852Z,0
2019-02-22T03:42:01.159Z,0
2019-02-22T03:42:41.785Z,0
2019-02-22T03:43:22.414Z,0
2019-02-22T03:44:03.015Z,0
2019-02-22T03:44:43.621Z,0
2019-02-22T03:45:24.261Z,0
2019-02-22T03:46:04.878Z,0
2019-02-22T03:46:45.484Z,0
2019-02-22T03:47:26.085Z,0
2019-02-22T03:48:06.701Z,0
2019-02-22T03:48:47.321Z,0
2019-02-22T03:49:27.974Z,0
2019-02-22T03:50:08.578Z,0
2019-02-22T03:50:49.176Z,0
2019-02-22T03:51:29.792Z,0
2019-02-22T03:52:10.386Z,0
2019-02-22T03:52:51.001Z,0
2019-02-22T03:53:31.631Z,0
2019-02-22T03:54:12.231Z,0
2019-02-22T03:54:52.837Z,0
2019-02-22T03:55:33.447Z,0
2019-02-22T03:56:14.054Z,0
2019-02-22T03:56:54.654Z,0
2019-02-22T03:57:35.247Z,0
2019-02-22T03:58:15.851Z,0
2019-02-22T03:58:56.464Z,0
2019-02-22T03:59:37.077Z,0
2019-02-22T04:00:17.709Z,0
2019-02-22T04:00:58.309Z,0
2019-02-22T04:01:38.921Z,0
2019-02-22T04:02:19.523Z,0
2019-02-22T04:03:00.118Z,0
2019-02-22T04:03:40.724Z,0
2019-02-22T04:04:21.333Z,0
2019-02-22T04:05:01.947Z,0
2019-02-22T04:05:42.540Z,0
2019-02-22T04:06:23.167Z,0
2019-02-22T04:07:03.758Z,0
2019-02-22T04:07:44.356Z,0
2019-02-22T04:08:24.947Z,0
2019-02-22T04:09:05.561Z,0
2019-02-22T04:09:46.173Z,0
2019-02-22T04:10:26.775Z,0
2019-02-22T04:11:07.385Z,0
2019-02-22T04:11:47.994Z,0
2019-02-22T04:12:28.598Z,0
2019-02-22T04:13:09.207Z,0
2019-02-22T04:13:49.821Z,0
2019-02-22T04:14:30.476Z,0
2019-02-22T04:15:11.091Z,0
2019-02-22T04:15:51.711Z,0
2019-02-22T04:16:32.331Z,0
2019-02-22T04:17:12.943Z,0
2019-02-22T04:17:53.559Z,0
2019-02-22T04:18:34.157Z,0
2019-02-22T04:19:14.779Z,0
2019-02-22T04:19:55.373Z,0
2019-02-22T04:20:35.973Z,0
2019-02-22T04:21:16.573Z,0
2019-02-22T04:21:57.185Z,0
2019-02-22T04:22:37.787Z,0
2019-02-22T04:23:18.383Z,0
2019-02-22T04:23:58.982Z,0
2019-02-22T04:24:39.603Z,0
2019-02-22T04:25:20.210Z,0
2019-02-22T04:26:00.811Z,0
2019-02-22T04:26:41.424Z,0
2019-02-22T04:27:22.014Z,0
2019-02-22T04:28:02.608Z,0
2019-02-22T04:28:43.214Z,0
2019-02-22T04:29:23.802Z,0
2019-02-22T04:30:04.400Z,0
2019-02-22T04:30:45.007Z,0
2019-02-22T04:31:25.603Z,0
2019-02-22T04:32:06.235Z,0
2019-02-22T04:32:46.837Z,0
2019-02-22T04:33:27.463Z,0
2019-02-22T04:34:08.065Z,0
2019-02-22T04:34:48.685Z,0
2019-02-22T04:35:29.270Z,0
2019-02-22T04:36:09.914Z,0
2019-02-22T04:36:50.523Z,0
2019-02-22T04:37:31.139Z,0
2019-02-22T04:38:11.738Z,0
2019-02-22T04:38:52.341Z,0
2019-02-22T04:39:32.938Z,0
2019-02-22T04:40:13.547Z,0
2019-02-22T04:40:54.148Z,0
2019-02-22T04:41:34.745Z,0
2019-02-22T04:42:15.381Z,0
2019-02-22T04:42:55.988Z,0
2019-02-22T04:43:36.583Z,0
2019-02-22T04:44:17.167Z,0
2019-02-22T04:44:57.769Z,0
2019-02-22T04:45:38.382Z,0
2019-02-22T04:46:18.997Z,0
2019-02-22T04:46:59.601Z,0
2019-02-22T04:47:40.227Z,0
2019-02-22T04:48:20.831Z,0
2019-02-22T04:49:01.435Z,0
2019-02-22T04:49:42.023Z,0
2019-02-22T04:50:22.635Z,0
2019-02-22T04:51:03.272Z,0
2019-02-22T04:51:43.888Z,0
2019-02-22T04:52:24.489Z,0
2019-02-22T04:53:05.089Z,0
2019-02-22T04:53:45.689Z,0
2019-02-22T04:54:26.292Z,0
2019-02-22T04:55:06.885Z,0
2019-02-22T04:55:47.480Z,0
2019-02-22T04:56:28.085Z,0
2019-02-22T04:57:08.685Z,0
2019-02-22T04:57:49.291Z,0
2019-02-22T04:58:29.926Z,0
2019-02-22T04:59:10.521Z,0
2019-02-22T04:59:51.129Z,0
2019-02-22T05:00:31.719Z,0
2019-02-22T05:01:12.301Z,0
2019-02-22T05:01:52.899Z,0
2019-02-22T05:02:33.505Z,0
2019-02-22T05:03:14.105Z,0
2019-02-22T05:03:54.717Z,0
2019-02-22T05:04:35.343Z,0
2019-02-22T05:05:15.934Z,0
2019-02-22T05:05:56.529Z,0
2019-02-22T05:06:37.119Z,0
2019-02-22T05:07:17.725Z,0
2019-02-22T05:07:58.325Z,0
2019-02-22T05:08:38.952Z,0
2019-02-22T05:09:19.561Z,0
2019-02-22T05:10:00.363Z,0
2019-02-22T05:10:40.779Z,0
2019-02-22T05:11:21.384Z,0
2019-02-22T05:12:10.285Z,0
2019-02-22T05:12:42.603Z,0
2019-02-22T05:13:23.214Z,0
2019-02-22T05:14:03.822Z,0
2019-02-22T05:14:44.434Z,0
2019-02-22T05:15:25.040Z,0
2019-02-22T05:16:05.657Z,0
2019-02-22T05:16:46.287Z,0
2019-02-22T05:17:26.893Z,0
2019-02-22T05:18:07.510Z,0
2019-02-22T05:18:48.134Z,0
2019-02-22T05:19:28.707Z,0
2019-02-22T05:20:09.346Z,0
2019-02-22T05:20:49.981Z,0
2019-02-22T05:21:30.589Z,0
2019-02-22T05:22:11.210Z,0
2019-02-22T05:23:02.931Z,0
2019-02-22T05:23:32.439Z,0
2019-02-22T05:24:13.035Z,0
2019-02-22T05:24:53.663Z,0
2019-02-22T05:25:34.277Z,0
2019-02-22T05:26:14.874Z,0
2019-02-22T05:26:55.481Z,0
2019-02-22T05:27:36.090Z,0
2019-02-22T05:28:16.719Z,0
2019-02-22T05:28:57.351Z,0
2019-02-22T05:29:37.953Z,0
2019-02-22T05:30:18.559Z,0
2019-02-22T05:30:59.236Z,0
2019-02-22T05:31:39.840Z,0
2019-02-22T05:32:20.439Z,0
2019-02-22T05:33:01.040Z,0
2019-02-22T05:33:41.639Z,0
2019-02-22T05:34:22.251Z,0
2019-02-22T05:35:02.873Z,0
2019-02-22T05:35:43.489Z,0
2019-02-22T05:36:24.099Z,0
2019-02-22T05:37:04.707Z,0
2019-02-22T05:37:45.310Z,0
2019-02-22T05:38:25.972Z,0
2019-02-22T05:39:17.985Z,0
2019-02-22T05:39:47.155Z,0
2019-02-22T05:40:27.767Z,0
2019-02-22T05:41:08.384Z,0
2019-02-22T05:41:48.973Z,0
2019-02-22T05:42:29.585Z,0
2019-02-22T05:43:10.173Z,0
2019-02-22T05:43:50.775Z,0
2019-02-22T05:44:31.421Z,0
2019-02-22T05:45:12.042Z,0
2019-02-22T05:45:52.681Z,0
2019-02-22T05:46:33.283Z,0
2019-02-22T05:47:13.879Z,0
2019-02-22T05:47:54.495Z,0
2019-02-22T05:48:35.103Z,0
2019-02-22T05:49:15.695Z,0
2019-02-22T05:49:56.297Z,0
2019-02-22T05:50:36.893Z,0
2019-02-22T05:51:17.504Z,0
2019-02-22T05:51:58.135Z,0
2019-02-22T05:52:38.735Z,0
2019-02-22T05:53:19.348Z,0
2019-02-22T05:53:59.945Z,0
2019-02-22T05:54:40.555Z,0
2019-02-22T05:55:21.165Z,0
2019-02-22T05:56:01.798Z,0
2019-02-22T05:56:42.779Z,0
2019-02-22T05:57:23.379Z,0
2019-02-22T05:58:04.041Z,0
2019-02-22T05:58:45.201Z,0
2019-02-22T05:59:25.793Z,0
2019-02-22T06:00:06.536Z,0
2019-02-22T06:00:47.143Z,0
2019-02-22T06:01:27.728Z,0
2019-02-22T06:02:08.323Z,0
2019-02-22T06:02:48.934Z,0
2019-02-22T06:03:29.537Z,0
2019-02-22T06:04:10.151Z,0
2019-02-22T06:04:50.754Z,0
2019-02-22T06:05:31.508Z,0
2019-02-22T06:06:12.121Z,0
2019-02-22T06:06:52.725Z,0
2019-02-22T06:07:33.333Z,0
2019-02-22T06:08:13.932Z,0
2019-02-22T06:08:54.534Z,0
2019-02-22T06:09:35.139Z,0
2019-02-22T06:10:15.781Z,0
2019-02-22T06:10:56.445Z,0
2019-02-22T06:11:37.061Z,0
2019-02-22T06:12:18.539Z,0
2019-02-22T06:12:58.273Z,0
2019-02-22T06:13:38.855Z,0
2019-02-22T06:14:19.447Z,0
2019-02-22T06:15:00.053Z,0
2019-02-22T06:15:40.687Z,0
2019-02-22T06:16:21.299Z,0
2019-02-22T06:17:01.912Z,0
2019-02-22T06:17:42.499Z,0
2019-02-22T06:18:23.352Z,0
2019-02-22T06:19:03.711Z,0
2019-02-22T06:19:44.317Z,0
2019-02-22T06:20:24.924Z,0
2019-02-22T06:21:05.522Z,0
2019-02-22T06:21:46.127Z,4
2019-02-22T06:22:29.782Z,0
2019-02-22T06:23:07.351Z,0
2019-02-22T06:23:47.955Z,0
2019-02-22T06:24:28.572Z,4
2019-02-22T06:25:09.170Z,4
2019-02-22T06:25:49.799Z,0
2019-02-22T06:26:30.564Z,4
2019-02-22T06:27:11.009Z,4
2019-02-22T06:27:51.592Z,4
2019-02-22T06:28:32.197Z,4
2019-02-22T06:29:12.798Z,4
2019-02-22T06:29:53.397Z,4
2019-02-22T06:30:33.997Z,8
2019-02-22T06:31:14.637Z,4
2019-02-22T06:31:55.307Z,8
2019-02-22T06:32:35.907Z,8
2019-02-22T06:33:16.525Z,4
2019-02-22T06:33:57.121Z,8
2019-02-22T06:34:38.346Z,8
2019-02-22T06:35:18.941Z,12
2019-02-22T06:35:59.588Z,12
2019-02-22T06:36:41.697Z,12
2019-02-22T06:37:22.359Z,12
2019-02-22T06:38:02.957Z,16
2019-02-22T06:38:46.540Z,16
2019-02-22T06:39:30.056Z,16
2019-02-22T06:40:11.157Z,20
2019-02-22T06:40:51.771Z,20
2019-02-22T06:41:32.398Z,24
2019-02-22T06:42:12.999Z,24
2019-02-22T06:42:53.593Z,28
2019-02-22T06:43:34.185Z,28
2019-02-22T06:44:14.821Z,32
2019-02-22T06:44:55.432Z,36
2019-02-22T06:45:36.133Z,36
2019-02-22T06:46:16.782Z,40
2019-02-22T06:46:57.395Z,40
2019-02-22T06:47:38.033Z,48
2019-02-22T06:48:18.653Z,48
2019-02-22T06:48:59.272Z,56
2019-02-22T06:49:39.974Z,56
2019-02-22T06:50:20.581Z,60
2019-02-22T06:51:01.174Z,64
2019-02-22T06:51:41.780Z,68
2019-02-22T06:52:22.421Z,76
2019-02-22T06:53:03.044Z,80
2019-02-22T06:53:43.645Z,80
2019-02-22T06:54:24.249Z,88
2019-02-22T06:55:04.879Z,96
2019-02-22T06:55:45.493Z,96
2019-02-22T06:56:26.109Z,100
2019-02-22T06:57:06.706Z,108
2019-02-22T06:57:47.341Z,112
2019-02-22T06:58:27.948Z,120
2019-02-22T06:59:08.593Z,124
2019-02-22T06:59:49.152Z,132
2019-02-22T07:00:29.750Z,140
2019-02-22T07:01:10.370Z,148
2019-02-22T07:01:50.967Z,152
2019-02-22T07:02:31.629Z,160
2019-02-22T07:03:12.256Z,164
2019-02-22T07:03:52.875Z,176
2019-02-22T07:04:33.467Z,180
2019-02-22T07:05:14.068Z,188
2019-02-22T07:05:54.687Z,196
2019-02-22T07:06:35.266Z,200
2019-02-22T07:07:15.872Z,212
2019-02-22T07:07:56.948Z,216
2019-02-22T07:08:37.102Z,224
2019-02-22T07:09:17.733Z,232
2019-02-22T07:09:58.344Z,240
2019-02-22T07:10:38.941Z,248
2019-02-22T07:11:19.537Z,256
2019-02-22T07:12:00.137Z,264
2019-02-22T07:12:40.742Z,268
2019-02-22T07:13:21.343Z,280
2019-02-22T07:14:01.958Z,288
2019-02-22T07:14:42.562Z,296
2019-02-22T07:15:23.165Z,300
2019-02-22T07:16:03.779Z,312
2019-02-22T07:16:44.387Z,316
2019-02-22T07:17:25.019Z,328
2019-02-22T07:18:05.615Z,332
2019-02-22T07:18:46.240Z,340
2019-02-22T07:19:26.923Z,348
2019-02-22T07:20:07.523Z,352
2019-02-22T07:20:48.139Z,360
2019-02-22T07:21:40.341Z,368
2019-02-22T07:22:09.361Z,376
2019-02-22T07:22:49.971Z,380
2019-02-22T07:23:32.559Z,392
2019-02-22T07:24:13.176Z,420
2019-02-22T07:24:54.174Z,448
2019-02-22T07:25:34.776Z,460
2019-02-22T07:26:15.835Z,448
2019-02-22T07:26:56.410Z,440
2019-02-22T07:27:37.007Z,440
2019-02-22T07:28:17.605Z,464
2019-02-22T07:28:58.210Z,492
2019-02-22T07:29:38.816Z,516
2019-02-22T07:30:19.430Z,532
2019-02-22T07:31:00.047Z,536
2019-02-22T07:31:40.695Z,540
2019-02-22T07:32:21.341Z,544
2019-02-22T07:33:01.935Z,544
2019-02-22T07:33:42.523Z,540
2019-02-22T07:34:23.156Z,536
2019-02-22T07:35:03.779Z,536
2019-02-22T07:35:44.686Z,540
2019-02-22T07:36:25.296Z,540
2019-02-22T07:37:06.067Z,544
2019-02-22T07:37:46.661Z,548
2019-02-22T07:38:27.269Z,552
2019-02-22T07:39:07.859Z,552
2019-02-22T07:39:48.448Z,556
2019-02-22T07:40:29.046Z,556
2019-02-22T07:41:09.648Z,560
2019-02-22T07:41:50.251Z,564
2019-02-22T07:42:31.411Z,568
2019-02-22T07:43:12.018Z,568
2019-02-22T07:43:52.706Z,576
2019-02-22T07:44:33.311Z,576
2019-02-22T07:45:13.904Z,580
2019-02-22T07:45:54.510Z,580
2019-02-22T07:46:35.282Z,588
2019-02-22T07:47:17.249Z,588
2019-02-22T07:47:57.863Z,588
2019-02-22T07:48:38.473Z,588
2019-02-22T07:49:19.077Z,592
2019-02-22T07:49:59.676Z,592
2019-02-22T07:50:40.297Z,592
2019-02-22T07:51:20.906Z,592
2019-02-22T07:52:01.519Z,596
2019-02-22T07:52:42.107Z,596
2019-02-22T07:53:22.698Z,592
2019-02-22T07:54:03.342Z,596
2019-02-22T07:54:43.951Z,592
2019-02-22T07:55:24.571Z,592
2019-02-22T07:56:05.171Z,592
2019-02-22T07:56:45.831Z,588
2019-02-22T07:57:26.416Z,588
2019-02-22T07:58:08.692Z,592
2019-02-22T07:58:47.676Z,592
2019-02-22T07:59:28.286Z,592
2019-02-22T08:00:08.892Z,592
2019-02-22T08:00:49.486Z,592
2019-02-22T08:01:30.076Z,596
2019-02-22T08:02:10.681Z,596
2019-02-22T08:02:51.286Z,600
2019-02-22T08:03:31.902Z,604
2019-02-22T08:04:12.498Z,604
2019-02-22T08:04:53.095Z,600
2019-02-22T08:05:33.711Z,604
2019-02-22T08:06:14.306Z,604
2019-02-22T08:06:55.293Z,600
2019-02-22T08:07:35.578Z,604
2019-02-22T08:08:16.363Z,604
2019-02-22T08:08:56.844Z,600
2019-02-22T08:09:37.538Z,604
2019-02-22T08:10:18.175Z,604
2019-02-22T08:10:59.034Z,608
2019-02-22T08:11:39.687Z,608
2019-02-22T08:12:20.272Z,608
2019-02-22T08:13:01.024Z,608
2019-02-22T08:13:41.850Z,608
2019-02-22T08:14:22.548Z,608
2019-02-22T08:15:03.117Z,608
2019-02-22T08:15:43.794Z,608
2019-02-22T08:16:24.416Z,608
2019-02-22T08:17:05.023Z,612
2019-02-22T08:17:45.625Z,608
2019-02-22T08:18:26.236Z,612
2019-02-22T08:19:06.840Z,608
2019-02-22T08:19:47.428Z,608
2019-02-22T08:20:28.037Z,608
2019-02-22T08:21:08.651Z,612
2019-02-22T08:21:49.255Z,612
2019-02-22T08:22:29.903Z,608
2019-02-22T08:23:10.476Z,616
2019-02-22T08:23:51.102Z,616
2019-02-22T08:24:31.699Z,616
2019-02-22T08:25:12.312Z,616
2019-02-22T08:25:52.934Z,620
2019-02-22T08:26:33.550Z,620
2019-02-22T08:27:14.148Z,620
2019-02-22T08:27:54.786Z,624
2019-02-22T08:28:35.422Z,624
2019-02-22T08:29:16.039Z,624
2019-02-22T08:29:56.665Z,628
2019-02-22T08:30:37.266Z,624
2019-02-22T08:31:17.866Z,628
2019-02-22T08:31:58.474Z,628
2019-02-22T08:32:39.097Z,628
2019-02-22T08:33:19.711Z,628
2019-02-22T08:34:00.347Z,628
2019-02-22T08:34:40.948Z,628
2019-02-22T08:35:21.534Z,628
2019-02-22T08:36:02.121Z,628
2019-02-22T08:36:42.742Z,628
2019-02-22T08:37:23.366Z,632
2019-02-22T08:38:03.987Z,632
2019-02-22T08:38:45.026Z,636
2019-02-22T08:39:25.661Z,632
2019-02-22T08:40:06.274Z,632
2019-02-22T08:40:46.888Z,632
2019-02-22T08:41:27.510Z,632
2019-02-22T08:42:08.136Z,632
2019-02-22T08:42:48.750Z,632
2019-02-22T08:43:31.703Z,632
2019-02-22T08:44:09.971Z,632
2019-02-22T08:44:50.570Z,632
2019-02-22T08:45:31.174Z,636
2019-02-22T08:46:11.792Z,632
2019-02-22T08:46:52.395Z,632
2019-02-22T08:47:33.022Z,636
2019-02-22T08:48:13.625Z,632
2019-02-22T08:48:54.219Z,632
2019-02-22T08:49:34.833Z,636
2019-02-22T08:50:15.426Z,636
2019-02-22T08:50:56.020Z,632
2019-02-22T08:51:36.750Z,632
2019-02-22T08:52:17.348Z,632
2019-02-22T08:52:57.954Z,632
2019-02-22T08:53:38.613Z,632
2019-02-22T08:54:19.431Z,632
2019-02-22T08:55:00.100Z,636
2019-02-22T08:55:40.928Z,632
2019-02-22T08:56:21.538Z,636
2019-02-22T08:57:02.159Z,632
2019-02-22T08:57:42.754Z,632
2019-02-22T08:58:23.370Z,632
2019-02-22T08:59:03.976Z,632
2019-02-22T08:59:44.606Z,636
2019-02-22T09:00:25.208Z,636
2019-02-22T09:01:05.806Z,636
2019-02-22T09:01:46.442Z,636
2019-02-22T09:02:27.062Z,640
2019-02-22T09:03:07.735Z,636
2019-02-22T09:03:50.807Z,644
2019-02-22T09:04:28.962Z,644
2019-02-22T09:05:09.561Z,644
2019-02-22T09:05:50.152Z,644
2019-02-22T09:06:30.746Z,644
2019-02-22T09:07:11.342Z,644
2019-02-22T09:07:51.952Z,648
2019-02-22T09:08:32.554Z,652
2019-02-22T09:09:13.165Z,652
2019-02-22T09:09:53.758Z,656
2019-02-22T09:10:34.390Z,652
2019-02-22T09:11:14.996Z,660
2019-02-22T09:11:57.560Z,660
2019-02-22T09:12:36.810Z,660
2019-02-22T09:13:17.408Z,664
2019-02-22T09:13:58.429Z,664
2019-02-22T09:14:38.955Z,664
2019-02-22T09:15:19.542Z,668
2019-02-22T09:16:00.140Z,668
2019-02-22T09:16:40.872Z,672
2019-02-22T09:17:21.594Z,700
2019-02-22T09:18:02.350Z,676
2019-02-22T09:18:43.210Z,676
2019-02-22T09:19:23.870Z,676
2019-02-22T09:20:04.742Z,680
2019-02-22T09:20:45.329Z,680
2019-02-22T09:21:25.928Z,684
2019-02-22T09:22:06.544Z,680
2019-02-22T09:22:47.422Z,680
2019-02-22T09:23:28.138Z,688
2019-02-22T09:24:08.777Z,684
2019-02-22T09:24:49.560Z,688
2019-02-22T09:25:30.762Z,688
2019-02-22T09:26:15.112Z,688
2019-02-22T09:26:56.368Z,692
2019-02-22T09:27:36.974Z,696
2019-02-22T09:28:17.688Z,692
2019-02-22T09:29:02.438Z,696
2019-02-22T09:30:01.160Z,696
2019-02-22T09:30:41.836Z,700
2019-02-22T09:31:22.462Z,700
2019-02-22T09:32:03.068Z,704
2019-02-22T09:32:43.670Z,704
2019-02-22T09:33:24.279Z,700
2019-02-22T09:34:05.302Z,704
2019-02-22T09:34:50.194Z,704
2019-02-22T09:35:35.303Z,704
2019-02-22T09:36:17.358Z,708
2019-02-22T09:36:57.993Z,708
2019-02-22T09:37:38.615Z,712
2019-02-22T09:38:19.199Z,712
2019-02-22T09:38:59.799Z,712
2019-02-22T09:39:40.418Z,716
2019-02-22T09:40:21.411Z,716
2019-02-22T09:41:02.015Z,716
2019-02-22T09:41:42.628Z,720
2019-02-22T09:42:23.364Z,720
2019-02-22T09:43:06.319Z,724
2019-02-22T09:43:54.506Z,720
2019-02-22T09:44:27.598Z,728
2019-02-22T09:45:08.192Z,728
2019-02-22T09:45:48.794Z,728
2019-02-22T09:46:29.426Z,728
2019-02-22T09:47:10.090Z,732
2019-02-22T09:47:50.728Z,732
2019-02-22T09:48:31.316Z,736